createdAt,value
2023-02-27T00:00:18.623Z,3.98
2023-02-27T00:00:53.290Z,3.97
2023-02-27T00:01:25.813Z,3.96
2023-02-27T00:01:58.190Z,3.95
2023-02-27T00:02:34.216Z,3.95
2023-02-27T00:03:06.632Z,3.94
2023-02-27T00:03:39.021Z,3.94
2023-02-27T00:04:13.803Z,3.93
2023-02-27T00:04:48.623Z,3.92
2023-02-27T00:05:22.643Z,3.88
2023-02-27T00:05:56.439Z,3.86
2023-02-27T00:06:31.827Z,3.85
2023-02-27T00:07:04.004Z,3.84
2023-02-27T00:07:36.130Z,3.82
2023-02-27T00:08:11.093Z,3.80
2023-02-27T00:08:43.287Z,3.82
2023-02-27T00:09:15.409Z,3.78
2023-02-27T00:09:50.097Z,3.76
2023-02-27T00:10:22.449Z,3.74
2023-02-27T00:10:54.601Z,3.72
2023-02-27T00:11:29.577Z,3.72
2023-02-27T00:12:02.494Z,3.72
2023-02-27T00:12:37.821Z,3.71
2023-02-27T00:13:12.910Z,3.71
2023-02-27T00:13:45.274Z,3.70
2023-02-27T00:14:18.070Z,3.69
2023-02-27T00:14:52.768Z,3.69
2023-02-27T00:15:25.121Z,3.68
2023-02-27T00:16:00.179Z,3.69
2023-02-27T00:16:32.329Z,3.67
2023-02-27T00:17:04.690Z,3.66
2023-02-27T00:17:39.773Z,3.65
2023-02-27T00:18:11.945Z,3.62
2023-02-27T00:18:44.040Z,3.60
2023-02-27T00:19:18.931Z,3.61
2023-02-27T00:19:53.776Z,3.60
2023-02-27T00:20:26.468Z,3.57
2023-02-27T00:21:01.240Z,3.59
2023-02-27T00:21:35.829Z,3.58
2023-02-27T00:22:08.943Z,3.55
2023-02-27T00:22:42.078Z,3.57
2023-02-27T00:23:17.160Z,3.55
2023-02-27T00:23:49.357Z,3.55
2023-02-27T00:24:22.596Z,3.55
2023-02-27T00:24:57.305Z,3.54
2023-02-27T00:25:29.583Z,3.54
2023-02-27T00:26:01.771Z,3.54
2023-02-27T00:26:36.725Z,3.53
2023-02-27T00:27:08.812Z,3.54
2023-02-27T00:27:41.799Z,3.53
2023-02-27T00:28:16.608Z,3.53
2023-02-27T00:28:48.707Z,3.54
2023-02-27T00:29:20.907Z,3.55
2023-02-27T00:29:59.584Z,3.54
2023-02-27T00:30:31.700Z,3.53
2023-02-27T00:31:06.769Z,3.53
2023-02-27T00:31:39.170Z,3.52
2023-02-27T00:32:11.371Z,3.54
2023-02-27T00:32:46.604Z,3.56
2023-02-27T00:33:18.845Z,3.55
2023-02-27T00:33:53.717Z,3.56
2023-02-27T00:34:26.246Z,3.56
2023-02-27T00:35:01.058Z,3.54
2023-02-27T00:35:35.833Z,3.56
2023-02-27T00:36:08.377Z,3.54
2023-02-27T00:36:40.601Z,3.56
2023-02-27T00:37:15.356Z,3.55
2023-02-27T00:37:47.545Z,3.55
2023-02-27T00:38:19.645Z,3.55
2023-02-27T00:38:54.393Z,3.54
2023-02-27T00:39:26.568Z,3.54
2023-02-27T00:39:58.686Z,3.52
2023-02-27T00:40:35.962Z,3.50
2023-02-27T00:41:08.200Z,3.49
2023-02-27T00:41:40.376Z,3.50
2023-02-27T00:42:15.117Z,3.47
2023-02-27T00:42:48.775Z,3.46
2023-02-27T00:43:20.860Z,3.44
2023-02-27T00:43:55.538Z,3.45
2023-02-27T00:44:27.673Z,3.43
2023-02-27T00:44:59.887Z,3.44
2023-02-27T00:45:34.579Z,3.42
2023-02-27T00:46:06.971Z,3.42
2023-02-27T00:46:39.207Z,3.43
2023-02-27T00:47:14.153Z,3.44
2023-02-27T00:47:46.458Z,3.43
2023-02-27T00:48:18.656Z,3.42
2023-02-27T00:48:53.472Z,3.43
2023-02-27T00:49:26.243Z,3.40
2023-02-27T00:50:01.181Z,3.43
2023-02-27T00:50:35.957Z,3.42
2023-02-27T00:51:08.112Z,3.40
2023-02-27T00:51:40.343Z,3.40
2023-02-27T00:52:15.096Z,3.38
2023-02-27T00:52:47.276Z,3.38
2023-02-27T00:53:22.091Z,3.38
2023-02-27T00:53:54.192Z,3.39
2023-02-27T00:54:26.358Z,3.40
2023-02-27T00:55:01.061Z,3.41
2023-02-27T00:55:33.164Z,3.43
2023-02-27T00:56:05.833Z,3.44
2023-02-27T00:56:41.226Z,3.44
2023-02-27T00:57:13.461Z,3.44
2023-02-27T00:57:46.269Z,3.45
2023-02-27T00:58:21.191Z,3.46
2023-02-27T00:58:53.337Z,3.47
2023-02-27T00:59:27.198Z,3.50
2023-02-27T01:00:02.009Z,3.50
2023-02-27T01:00:34.220Z,3.50
2023-02-27T01:01:06.370Z,3.51
2023-02-27T01:01:41.239Z,3.48
2023-02-27T01:02:13.545Z,3.47
2023-02-27T01:02:45.807Z,3.48
2023-02-27T01:03:20.605Z,3.48
2023-02-27T01:03:52.714Z,3.46
2023-02-27T01:04:24.987Z,3.46
2023-02-27T01:05:04.856Z,3.47
2023-02-27T01:05:36.978Z,3.44
2023-02-27T01:06:09.205Z,3.46
2023-02-27T01:06:43.909Z,3.46
2023-02-27T01:07:16.209Z,3.46
2023-02-27T01:07:50.956Z,3.46
2023-02-27T01:08:23.091Z,3.46
2023-02-27T01:08:56.004Z,3.46
2023-02-27T01:09:32.661Z,3.47
2023-02-27T01:10:06.238Z,3.45
2023-02-27T01:10:41.056Z,3.43
2023-02-27T01:11:13.191Z,3.41
2023-02-27T01:11:45.331Z,3.42
2023-02-27T01:12:20.133Z,3.40
2023-02-27T01:12:52.411Z,3.38
2023-02-27T01:13:24.566Z,3.40
2023-02-27T01:14:00.642Z,3.39
2023-02-27T01:14:32.811Z,3.39
2023-02-27T01:15:06.767Z,3.40
2023-02-27T01:15:41.614Z,3.41
2023-02-27T01:16:14.877Z,3.41
2023-02-27T01:16:47.010Z,3.41
2023-02-27T01:17:23.183Z,3.41
2023-02-27T01:17:55.446Z,3.40
2023-02-27T01:18:27.617Z,3.42
2023-02-27T01:19:03.607Z,3.44
2023-02-27T01:19:35.708Z,3.45
2023-02-27T01:20:12.585Z,3.47
2023-02-27T01:20:47.335Z,3.47
2023-02-27T01:21:19.700Z,3.48
2023-02-27T01:21:51.870Z,3.49
2023-02-27T01:22:27.337Z,3.49
2023-02-27T01:22:59.503Z,3.46
2023-02-27T01:23:31.616Z,3.46
2023-02-27T01:24:06.652Z,3.45
2023-02-27T01:24:38.826Z,3.45
2023-02-27T01:25:14.033Z,3.43
2023-02-27T01:25:47.017Z,3.40
2023-02-27T01:26:19.137Z,3.38
2023-02-27T01:26:54.783Z,3.38
2023-02-27T01:27:27.185Z,3.38
2023-02-27T01:27:59.340Z,3.39
2023-02-27T01:28:34.083Z,3.39
2023-02-27T01:29:06.651Z,3.37
2023-02-27T01:29:38.936Z,3.36
2023-02-27T01:30:16.336Z,3.36
2023-02-27T01:30:49.922Z,3.35
2023-02-27T01:31:22.066Z,3.36
2023-02-27T01:31:56.936Z,3.37
2023-02-27T01:32:29.205Z,3.37
2023-02-27T01:33:01.429Z,3.38
2023-02-27T01:33:36.144Z,3.39
2023-02-27T01:34:08.509Z,3.37
2023-02-27T01:34:40.615Z,3.37
2023-02-27T01:35:18.066Z,3.37
2023-02-27T01:35:50.264Z,3.36
2023-02-27T01:36:22.431Z,3.37
2023-02-27T01:36:57.205Z,3.37
2023-02-27T01:37:29.324Z,3.34
2023-02-27T01:38:01.625Z,3.33
2023-02-27T01:38:36.352Z,3.31
2023-02-27T01:39:08.632Z,3.31
2023-02-27T01:39:40.764Z,3.29
2023-02-27T01:40:16.890Z,3.29
2023-02-27T01:40:49.116Z,3.29
2023-02-27T01:41:21.359Z,3.29
2023-02-27T01:41:56.542Z,3.28
2023-02-27T01:42:29.270Z,3.28
2023-02-27T01:43:01.996Z,3.29
2023-02-27T01:43:37.499Z,3.27
2023-02-27T01:44:11.903Z,3.26
2023-02-27T01:45:13.837Z,3.24
2023-02-27T01:45:50.543Z,3.22
2023-02-27T01:46:23.525Z,3.22
2023-02-27T01:46:55.816Z,3.23
2023-02-27T01:47:30.673Z,3.23
2023-02-27T01:48:12.139Z,3.22
2023-02-27T01:48:45.359Z,3.21
2023-02-27T01:49:24.507Z,3.20
2023-02-27T01:49:56.619Z,3.21
2023-02-27T01:50:32.223Z,3.23
2023-02-27T01:51:11.413Z,3.24
2023-02-27T01:51:47.960Z,3.22
2023-02-27T01:52:20.252Z,3.24
2023-02-27T01:52:59.047Z,3.25
2023-02-27T01:53:34.305Z,3.26
2023-02-27T01:54:12.153Z,3.27
2023-02-27T01:54:44.268Z,3.28
2023-02-27T01:55:16.640Z,3.29
2023-02-27T01:55:52.472Z,3.32
2023-02-27T01:56:26.256Z,3.31
2023-02-27T01:57:02.698Z,3.32
2023-02-27T01:57:35.468Z,3.31
2023-02-27T01:58:12.283Z,3.33
2023-02-27T01:58:48.375Z,3.33
2023-02-27T01:59:21.901Z,3.33
2023-02-27T01:59:55.850Z,3.32
2023-02-27T02:00:31.694Z,3.32
2023-02-27T02:01:04.054Z,3.32
2023-02-27T02:01:37.314Z,3.34
2023-02-27T02:02:17.788Z,3.35
2023-02-27T02:02:52.777Z,3.27
2023-02-27T02:03:31.455Z,3.28
2023-02-27T02:04:13.295Z,3.27
2023-02-27T02:04:46.456Z,3.24
2023-02-27T02:05:19.750Z,3.26
2023-02-27T02:06:00.389Z,3.27
2023-02-27T02:06:35.949Z,3.24
2023-02-27T02:07:12.249Z,3.23
2023-02-27T02:07:48.406Z,3.23
2023-02-27T02:08:22.158Z,3.23
2023-02-27T02:08:56.328Z,3.23
2023-02-27T02:09:33.085Z,3.23
2023-02-27T02:10:07.904Z,3.22
2023-02-27T02:10:41.261Z,3.22
2023-02-27T02:11:18.590Z,3.22
2023-02-27T02:11:51.029Z,3.23
2023-02-27T02:12:27.038Z,3.22
2023-02-27T02:13:02.483Z,3.20
2023-02-27T02:13:35.490Z,3.17
2023-02-27T02:14:10.984Z,3.17
2023-02-27T02:14:47.717Z,3.16
2023-02-27T02:15:25.874Z,3.16
2023-02-27T02:16:14.616Z,3.13
2023-02-27T02:17:15.908Z,3.06
2023-02-27T02:18:01.117Z,3.09
2023-02-27T02:18:41.007Z,3.09
2023-02-27T02:19:44.028Z,3.07
2023-02-27T02:21:12.781Z,3.01
2023-02-27T02:22:28.228Z,2.95
2023-02-27T02:23:50.173Z,2.93
2023-02-27T02:24:52.219Z,2.93
2023-02-27T02:26:01.773Z,2.93
2023-02-27T02:26:44.406Z,2.92
2023-02-27T02:27:37.235Z,2.94
2023-02-27T02:28:23.732Z,2.94
2023-02-27T02:29:31.438Z,2.93
2023-02-27T02:30:54.430Z,2.92
2023-02-27T02:32:07.814Z,2.89
2023-02-27T02:33:11.909Z,2.88
2023-02-27T02:34:25.911Z,2.86
2023-02-27T02:35:29.725Z,2.85
2023-02-27T02:36:45.801Z,2.82
2023-02-27T02:37:52.482Z,2.81
2023-02-27T02:38:56.871Z,2.81
2023-02-27T02:40:06.695Z,2.81
2023-02-27T02:40:44.790Z,2.82
2023-02-27T02:41:28.990Z,2.85
2023-02-27T02:42:05.326Z,2.84
2023-02-27T02:42:43.622Z,2.86
2023-02-27T02:43:27.661Z,2.86
2023-02-27T02:44:05.237Z,2.87
2023-02-27T02:44:48.046Z,2.86
2023-02-27T02:45:30.892Z,2.87
2023-02-27T02:46:10.532Z,2.87
2023-02-27T02:46:47.935Z,2.89
2023-02-27T02:47:28.907Z,2.91
2023-02-27T02:48:09.229Z,2.92
2023-02-27T02:48:47.734Z,2.93
2023-02-27T02:49:31.561Z,2.96
2023-02-27T02:50:11.246Z,2.96
2023-02-27T02:50:50.540Z,2.98
2023-02-27T02:51:37.408Z,2.98
2023-02-27T02:52:17.745Z,3.00
2023-02-27T02:52:57.109Z,2.94
2023-02-27T02:53:40.580Z,2.94
2023-02-27T02:54:21.781Z,2.97
2023-02-27T02:54:59.570Z,2.98
2023-02-27T02:55:40.253Z,3.00
2023-02-27T02:56:21.150Z,3.00
2023-02-27T02:57:00.472Z,3.00
2023-02-27T02:57:41.093Z,3.01
2023-02-27T02:58:20.469Z,3.03
2023-02-27T02:59:02.624Z,3.03
2023-02-27T02:59:40.268Z,3.03
2023-02-27T03:00:18.824Z,3.04
2023-02-27T03:00:59.301Z,3.05
2023-02-27T03:01:33.738Z,3.00
2023-02-27T03:02:12.575Z,3.02
2023-02-27T03:02:49.223Z,3.05
2023-02-27T03:03:27.269Z,3.05
2023-02-27T03:04:09.828Z,3.04
2023-02-27T03:04:46.908Z,3.02
2023-02-27T03:05:25.168Z,3.01
2023-02-27T03:06:04.890Z,3.00
2023-02-27T03:06:41.728Z,2.99
2023-02-27T03:07:21.040Z,3.00
2023-02-27T03:08:00.493Z,3.00
2023-02-27T03:08:38.347Z,3.02
2023-02-27T03:09:17.997Z,3.05
2023-02-27T03:09:58.251Z,3.04
2023-02-27T03:10:35.143Z,3.05
2023-02-27T03:11:08.167Z,3.06
2023-02-27T03:11:48.343Z,3.06
2023-02-27T03:12:25.429Z,3.06
2023-02-27T03:13:05.510Z,3.04
2023-02-27T03:13:41.628Z,3.03
2023-02-27T03:14:21.927Z,3.03
2023-02-27T03:15:02.012Z,3.00
2023-02-27T03:15:39.966Z,2.99
2023-02-27T03:16:20.354Z,2.99
2023-02-27T03:16:56.168Z,2.99
2023-02-27T03:17:39.531Z,2.99
2023-02-27T03:18:20.861Z,2.99
2023-02-27T03:18:57.050Z,2.99
2023-02-27T03:19:34.609Z,2.99
2023-02-27T03:20:12.552Z,2.99
2023-02-27T03:20:49.605Z,2.99
2023-02-27T03:21:28.110Z,3.00
2023-02-27T03:22:07.537Z,3.00
2023-02-27T03:22:44.896Z,2.99
2023-02-27T03:23:21.105Z,2.98
2023-02-27T03:23:59.635Z,2.98
2023-02-27T03:24:40.096Z,2.99
2023-02-27T03:25:14.546Z,2.99
2023-02-27T03:25:57.853Z,2.99
2023-02-27T03:26:40.064Z,3.00
2023-02-27T03:27:13.682Z,3.02
2023-02-27T03:27:55.450Z,3.04
2023-02-27T03:28:32.754Z,3.04
2023-02-27T03:29:10.342Z,3.06
2023-02-27T03:29:52.994Z,3.08
2023-02-27T03:30:31.208Z,3.08
2023-02-27T03:31:11.769Z,3.08
2023-02-27T03:31:50.226Z,3.09
2023-02-27T03:32:29.373Z,3.08
2023-02-27T03:33:10.984Z,3.10
2023-02-27T03:33:49.379Z,3.08
2023-02-27T03:34:26.556Z,3.09
2023-02-27T03:35:01.728Z,3.07
2023-02-27T03:35:45.566Z,3.05
2023-02-27T03:36:29.706Z,3.02
2023-02-27T03:37:06.934Z,3.00
2023-02-27T03:37:53.233Z,2.99
2023-02-27T03:38:36.324Z,2.97
2023-02-27T03:39:17.246Z,2.98
2023-02-27T03:39:58.012Z,3.00
2023-02-27T03:40:34.696Z,2.98
2023-02-27T03:41:14.943Z,2.97
2023-02-27T03:42:05.926Z,2.94
2023-02-27T03:43:07.235Z,2.88
2023-02-27T03:43:59.709Z,2.90
2023-02-27T03:44:40.426Z,2.92
2023-02-27T03:45:23.032Z,2.94
2023-02-27T03:46:00.555Z,2.94
2023-02-27T03:46:32.929Z,2.94
2023-02-27T03:47:07.824Z,2.95
2023-02-27T03:47:40.170Z,2.95
2023-02-27T03:48:13.188Z,2.96
2023-02-27T03:48:49.260Z,2.96
2023-02-27T03:49:21.611Z,2.97
2023-02-27T03:49:56.043Z,2.98
2023-02-27T03:50:30.937Z,2.99
2023-02-27T03:51:03.852Z,3.00
2023-02-27T03:51:36.735Z,3.01
2023-02-27T03:52:09.195Z,3.02
2023-02-27T03:52:44.161Z,3.02
2023-02-27T03:53:21.768Z,3.01
2023-02-27T03:54:01.714Z,3.00
2023-02-27T03:54:41.517Z,2.99
2023-02-27T03:55:19.265Z,2.99
2023-02-27T03:55:53.693Z,2.98
2023-02-27T03:56:32.472Z,2.99
2023-02-27T03:57:06.815Z,3.00
2023-02-27T03:57:40.278Z,3.00
2023-02-27T03:58:15.474Z,3.01
2023-02-27T03:58:49.504Z,3.01
2023-02-27T03:59:23.316Z,3.02
2023-02-27T04:00:00.752Z,3.01
2023-02-27T04:00:33.559Z,3.02
2023-02-27T04:01:05.920Z,3.02
2023-02-27T04:01:40.990Z,3.03
2023-02-27T04:02:13.560Z,3.02
2023-02-27T04:02:50.279Z,3.03
2023-02-27T04:03:27.870Z,2.99
2023-02-27T04:04:05.117Z,2.99
2023-02-27T04:04:58.122Z,2.96
2023-02-27T04:06:22.323Z,2.93
2023-02-27T04:07:14.055Z,2.94
2023-02-27T04:07:59.576Z,2.92
2023-02-27T04:08:47.261Z,2.92
2023-02-27T04:09:29.270Z,2.93
2023-02-27T04:10:42.106Z,2.90
2023-02-27T04:11:32.763Z,2.89
2023-02-27T04:12:14.165Z,2.84
2023-02-27T04:13:12.053Z,2.86
2023-02-27T04:13:50.536Z,2.86
2023-02-27T04:14:50.241Z,2.87
2023-02-27T04:15:35.974Z,2.88
2023-02-27T04:16:31.404Z,2.89
2023-02-27T04:17:16.425Z,2.89
2023-02-27T04:17:59.022Z,2.91
2023-02-27T04:18:50.812Z,2.90
2023-02-27T04:19:40.530Z,2.87
2023-02-27T04:20:33.884Z,2.86
2023-02-27T04:21:13.022Z,2.85
2023-02-27T04:21:57.303Z,2.85
2023-02-27T04:22:35.805Z,2.87
2023-02-27T04:23:16.066Z,2.88
2023-02-27T04:23:50.556Z,2.84
2023-02-27T04:24:36.434Z,2.85
2023-02-27T04:25:30.412Z,2.86
2023-02-27T04:26:18.031Z,2.86
2023-02-27T04:26:57.230Z,2.87
2023-02-27T04:27:37.430Z,2.91
2023-02-27T04:28:20.266Z,2.92
2023-02-27T04:29:03.134Z,2.93
2023-02-27T04:29:42.066Z,2.92
2023-02-27T04:30:28.712Z,2.93
2023-02-27T04:31:08.706Z,2.91
2023-02-27T04:31:46.253Z,2.93
2023-02-27T04:32:28.769Z,2.93
2023-02-27T04:33:07.673Z,2.96
2023-02-27T04:33:48.145Z,2.96
2023-02-27T04:34:23.622Z,2.90
2023-02-27T04:35:00.040Z,2.90
2023-02-27T04:35:41.303Z,2.94
2023-02-27T04:36:23.524Z,2.94
2023-02-27T04:37:03.862Z,2.95
2023-02-27T04:37:42.520Z,2.90
2023-02-27T04:38:22.414Z,2.90
2023-02-27T04:39:06.297Z,2.92
2023-02-27T04:39:51.671Z,2.92
2023-02-27T04:40:33.427Z,2.93
2023-02-27T04:41:15.821Z,2.94
2023-02-27T04:41:53.155Z,2.92
2023-02-27T04:42:29.193Z,2.92
2023-02-27T04:43:06.768Z,2.91
2023-02-27T04:43:41.914Z,2.91
2023-02-27T04:44:16.359Z,2.92
2023-02-27T04:44:53.069Z,2.92
2023-02-27T04:45:27.867Z,2.92
2023-02-27T04:46:02.879Z,2.91
2023-02-27T04:46:41.381Z,2.92
2023-02-27T04:47:16.610Z,2.91
2023-02-27T04:47:53.597Z,2.91
2023-02-27T04:48:33.215Z,2.91
2023-02-27T04:49:12.520Z,2.90
2023-02-27T04:49:48.338Z,2.90
2023-02-27T04:50:28.863Z,2.91
2023-02-27T04:51:05.533Z,2.93
2023-02-27T04:51:44.499Z,2.92
2023-02-27T04:52:23.505Z,2.88
2023-02-27T04:53:02.094Z,2.85
2023-02-27T04:53:41.774Z,2.85
2023-02-27T04:54:18.086Z,2.83
2023-02-27T04:54:55.232Z,2.83
2023-02-27T04:55:33.362Z,2.83
2023-02-27T04:56:14.595Z,2.83
2023-02-27T04:56:52.744Z,2.83
2023-02-27T04:57:33.171Z,2.83
2023-02-27T04:58:07.105Z,2.76
2023-02-27T04:58:45.606Z,2.76
2023-02-27T04:59:25.003Z,2.76
2023-02-27T05:00:00.416Z,2.76
2023-02-27T05:00:35.431Z,2.77
2023-02-27T05:01:18.071Z,2.77
2023-02-27T05:01:55.616Z,2.77
2023-02-27T05:02:33.519Z,2.77
2023-02-27T05:03:14.806Z,2.79
2023-02-27T05:03:50.248Z,2.78
2023-02-27T05:04:25.678Z,2.79
2023-02-27T05:05:03.261Z,2.83
2023-02-27T05:05:38.479Z,2.80
2023-02-27T05:06:11.497Z,2.80
2023-02-27T05:06:48.856Z,2.82
2023-02-27T05:07:25.946Z,2.82
2023-02-27T05:08:03.619Z,2.83
2023-02-27T05:08:48.322Z,2.82
2023-02-27T05:09:27.184Z,2.80
2023-02-27T05:10:02.718Z,2.78
2023-02-27T05:10:42.836Z,2.78
2023-02-27T05:11:27.167Z,2.78
2023-02-27T05:12:06.725Z,2.80
2023-02-27T05:12:45.966Z,2.80
2023-02-27T05:13:22.795Z,2.82
2023-02-27T05:14:01.189Z,2.83
2023-02-27T05:14:38.036Z,2.85
2023-02-27T05:15:14.530Z,2.86
2023-02-27T05:15:52.136Z,2.87
2023-02-27T05:16:29.680Z,2.90
2023-02-27T05:17:07.709Z,2.89
2023-02-27T05:17:49.066Z,2.91
2023-02-27T05:18:22.690Z,2.90
2023-02-27T05:18:55.800Z,2.89
2023-02-27T05:19:30.597Z,2.90
2023-02-27T05:20:05.257Z,2.92
2023-02-27T05:20:49.320Z,2.92
2023-02-27T05:21:30.404Z,2.93
2023-02-27T05:22:18.061Z,2.93
2023-02-27T05:23:02.189Z,2.92
2023-02-27T05:23:44.075Z,2.93
2023-02-27T05:24:27.228Z,2.95
2023-02-27T05:25:08.498Z,2.95
2023-02-27T05:25:49.129Z,2.96
2023-02-27T05:26:35.246Z,2.97
2023-02-27T05:27:17.974Z,2.98
2023-02-27T05:27:54.178Z,2.99
2023-02-27T05:28:37.068Z,3.02
2023-02-27T05:29:17.396Z,3.01
2023-02-27T05:29:50.496Z,2.98
2023-02-27T05:30:28.925Z,2.99
2023-02-27T05:31:07.947Z,2.99
2023-02-27T05:31:47.698Z,3.00
2023-02-27T05:32:30.791Z,2.99
2023-02-27T05:33:08.954Z,2.99
2023-02-27T05:33:49.199Z,2.98
2023-02-27T05:34:28.124Z,2.98
2023-02-27T05:35:08.976Z,2.99
2023-02-27T05:35:51.435Z,2.99
2023-02-27T05:36:30.365Z,3.00
2023-02-27T05:37:08.561Z,3.01
2023-02-27T05:37:47.684Z,2.99
2023-02-27T05:38:25.853Z,3.01
2023-02-27T05:39:01.927Z,3.03
2023-02-27T05:39:40.382Z,3.05
2023-02-27T05:40:17.134Z,3.07
2023-02-27T05:40:54.071Z,3.06
2023-02-27T05:41:35.863Z,3.05
2023-02-27T05:42:14.182Z,3.08
2023-02-27T05:42:53.774Z,3.07
2023-02-27T05:43:31.925Z,3.07
2023-02-27T05:44:09.330Z,3.07
2023-02-27T05:44:45.434Z,3.10
2023-02-27T05:45:24.767Z,3.10
2023-02-27T05:46:01.617Z,3.09
2023-02-27T05:46:37.682Z,3.09
2023-02-27T05:47:16.437Z,3.10
2023-02-27T05:47:54.927Z,3.10
2023-02-27T05:48:30.710Z,3.11
2023-02-27T05:49:11.256Z,3.11
2023-02-27T05:49:47.890Z,3.11
2023-02-27T05:50:23.814Z,3.10
2023-02-27T05:51:01.033Z,3.10
2023-02-27T05:51:35.744Z,3.11
2023-02-27T05:52:12.311Z,3.13
2023-02-27T05:52:50.292Z,3.15
2023-02-27T05:53:27.544Z,3.16
2023-02-27T05:54:03.221Z,3.19
2023-02-27T05:54:39.164Z,3.20
2023-02-27T05:55:20.262Z,3.22
2023-02-27T05:55:55.098Z,3.23
2023-02-27T05:56:35.744Z,3.24
2023-02-27T05:57:13.751Z,3.23
2023-02-27T05:57:51.878Z,3.22
2023-02-27T05:58:27.820Z,3.21
2023-02-27T05:59:06.346Z,3.20
2023-02-27T05:59:44.401Z,3.19
2023-02-27T06:00:21.549Z,3.18
2023-02-27T06:01:00.144Z,3.20
2023-02-27T06:01:33.242Z,3.21
2023-02-27T06:02:05.893Z,3.21
2023-02-27T06:02:41.348Z,3.23
2023-02-27T06:03:15.698Z,3.22
2023-02-27T06:03:50.563Z,3.23
2023-02-27T06:04:22.829Z,3.24
2023-02-27T06:04:55.203Z,3.26
2023-02-27T06:05:30.967Z,3.26
2023-02-27T06:06:06.831Z,3.26
2023-02-27T06:06:42.018Z,3.26
2023-02-27T06:07:17.376Z,3.26
2023-02-27T06:07:49.459Z,3.25
2023-02-27T06:08:22.527Z,3.24
2023-02-27T06:08:57.235Z,3.26
2023-02-27T06:09:29.382Z,3.26
2023-02-27T06:10:01.779Z,3.27
2023-02-27T06:10:37.230Z,3.26
2023-02-27T06:11:09.362Z,3.26
2023-02-27T06:11:46.627Z,3.24
2023-02-27T06:12:19.429Z,3.20
2023-02-27T06:12:51.571Z,3.19
2023-02-27T06:13:27.297Z,3.20
2023-02-27T06:13:59.446Z,3.21
2023-02-27T06:14:31.546Z,3.22
2023-02-27T06:15:06.511Z,3.22
2023-02-27T06:15:39.110Z,3.22
2023-02-27T06:16:20.504Z,3.24
2023-02-27T06:16:52.678Z,3.23
2023-02-27T06:17:24.965Z,3.26
2023-02-27T06:17:59.763Z,3.27
2023-02-27T06:18:31.866Z,3.27
2023-02-27T06:19:05.039Z,3.29
2023-02-27T06:19:39.823Z,3.31
2023-02-27T06:20:12.853Z,3.32
2023-02-27T06:20:48.673Z,3.36
2023-02-27T06:21:20.876Z,3.37
2023-02-27T06:21:52.991Z,3.39
2023-02-27T06:22:27.773Z,3.41
2023-02-27T06:22:59.877Z,3.43
2023-02-27T06:23:34.672Z,3.44
2023-02-27T06:24:07.000Z,3.44
2023-02-27T06:24:39.541Z,3.44
2023-02-27T06:25:14.375Z,3.44
2023-02-27T06:25:47.169Z,3.43
2023-02-27T06:26:21.921Z,3.44
2023-02-27T06:26:56.651Z,3.45
2023-02-27T06:27:28.836Z,3.45
2023-02-27T06:28:03.950Z,3.47
2023-02-27T06:28:36.118Z,3.48
2023-02-27T06:29:10.940Z,3.50
2023-02-27T06:29:47.561Z,3.50
2023-02-27T06:30:20.097Z,3.51
2023-02-27T06:30:54.098Z,3.53
2023-02-27T06:31:29.056Z,3.53
2023-02-27T06:32:01.511Z,3.53
2023-02-27T06:32:33.765Z,3.53
2023-02-27T06:33:08.535Z,3.54
2023-02-27T06:33:41.043Z,3.54
2023-02-27T06:34:13.161Z,3.55
2023-02-27T06:34:47.886Z,3.55
2023-02-27T06:35:20.206Z,3.53
2023-02-27T06:35:58.123Z,3.54
2023-02-27T06:36:30.649Z,3.53
2023-02-27T06:37:06.028Z,3.54
2023-02-27T06:37:41.153Z,3.52
2023-02-27T06:38:13.283Z,3.52
2023-02-27T06:38:45.381Z,3.53
2023-02-27T06:39:20.105Z,3.53
2023-02-27T06:39:52.239Z,3.53
2023-02-27T06:40:24.832Z,3.54
2023-02-27T06:40:59.486Z,3.53
2023-02-27T06:41:31.627Z,3.53
2023-02-27T06:42:09.294Z,3.55
2023-02-27T06:42:42.740Z,3.55
2023-02-27T06:43:15.104Z,3.56
2023-02-27T06:43:49.840Z,3.57
2023-02-27T06:44:21.982Z,3.57
2023-02-27T06:44:56.663Z,3.60
2023-02-27T06:45:28.809Z,3.61
2023-02-27T06:46:01.191Z,3.64
2023-02-27T06:46:35.951Z,3.66
2023-02-27T06:47:08.347Z,3.67
2023-02-27T06:47:41.374Z,3.69
2023-02-27T06:48:16.213Z,3.69
2023-02-27T06:48:48.348Z,3.70
2023-02-27T06:49:20.710Z,3.71
2023-02-27T06:49:55.365Z,3.71
2023-02-27T06:50:28.594Z,3.74
2023-02-27T06:51:00.747Z,3.72
2023-02-27T06:51:35.534Z,3.70
2023-02-27T06:52:07.732Z,3.69
2023-02-27T06:52:40.876Z,3.69
2023-02-27T06:53:15.615Z,3.69
2023-02-27T06:53:47.799Z,3.67
2023-02-27T06:54:20.152Z,3.66
2023-02-27T06:54:54.870Z,3.67
2023-02-27T06:55:26.953Z,3.66
2023-02-27T06:55:59.092Z,3.68
2023-02-27T06:56:33.765Z,3.68
2023-02-27T06:57:08.544Z,3.68
2023-02-27T06:57:40.643Z,3.67
2023-02-27T06:58:15.447Z,3.68
2023-02-27T06:58:47.535Z,3.67
2023-02-27T06:59:19.742Z,3.67
2023-02-27T06:59:55.876Z,3.67
2023-02-27T07:00:29.499Z,3.66
2023-02-27T07:01:01.790Z,3.69
2023-02-27T07:01:36.981Z,3.69
2023-02-27T07:02:13.322Z,3.70
2023-02-27T07:02:48.352Z,3.70
2023-02-27T07:03:20.524Z,3.72
2023-02-27T07:03:55.403Z,3.75
2023-02-27T07:04:27.558Z,3.75
2023-02-27T07:04:59.781Z,3.77
2023-02-27T07:05:34.681Z,3.78
2023-02-27T07:06:07.520Z,3.77
2023-02-27T07:07:35.795Z,3.79
2023-02-27T07:07:37.981Z,3.76
2023-02-27T07:08:13.748Z,3.77
2023-02-27T07:09:00.891Z,3.79
2023-02-27T07:09:40.795Z,3.77
2023-02-27T07:10:14.393Z,3.76
2023-02-27T07:10:49.287Z,3.76
2023-02-27T07:11:21.474Z,3.77
2023-02-27T07:11:53.587Z,3.77
2023-02-27T07:12:30.857Z,3.79
2023-02-27T07:13:03.594Z,3.76
2023-02-27T07:13:36.531Z,3.78
2023-02-27T07:14:12.590Z,3.79
2023-02-27T07:14:44.692Z,3.79
2023-02-27T07:15:17.417Z,3.80
2023-02-27T07:15:53.095Z,3.79
2023-02-27T07:16:25.510Z,3.76
2023-02-27T07:17:04.577Z,3.77
2023-02-27T07:17:37.997Z,3.74
2023-02-27T07:18:10.084Z,3.76
2023-02-27T07:18:44.933Z,3.75
2023-02-27T07:19:17.253Z,3.74
2023-02-27T07:19:49.408Z,3.73
2023-02-27T07:20:24.199Z,3.71
2023-02-27T07:20:56.372Z,3.69
2023-02-27T07:21:28.661Z,3.69
2023-02-27T07:22:03.614Z,3.69
2023-02-27T07:22:35.891Z,3.69
2023-02-27T07:23:12.519Z,3.67
2023-02-27T07:23:44.738Z,3.65
2023-02-27T07:24:19.522Z,3.66
2023-02-27T07:24:51.698Z,3.66
2023-02-27T07:25:29.134Z,3.68
2023-02-27T07:26:01.225Z,3.67
2023-02-27T07:26:33.398Z,3.69
2023-02-27T07:27:08.047Z,3.67
2023-02-27T07:27:45.672Z,3.68
2023-02-27T07:28:20.523Z,3.68
2023-02-27T07:28:52.670Z,3.69
2023-02-27T07:29:24.763Z,3.71
2023-02-27T07:29:59.768Z,3.74
2023-02-27T07:30:32.232Z,3.75
2023-02-27T07:31:07.143Z,3.79
2023-02-27T07:31:41.902Z,3.78
2023-02-27T07:32:14.020Z,3.79
2023-02-27T07:32:46.368Z,3.80
2023-02-27T07:33:21.198Z,3.81
2023-02-27T07:33:53.370Z,3.80
2023-02-27T07:34:25.541Z,3.82
2023-02-27T07:35:00.216Z,3.84
2023-02-27T07:35:32.503Z,3.81
2023-02-27T07:36:07.766Z,3.83
2023-02-27T07:36:40.079Z,3.82
2023-02-27T07:37:12.175Z,3.80
2023-02-27T07:37:46.819Z,3.81
2023-02-27T07:38:19.268Z,3.82
2023-02-27T07:38:54.335Z,3.82
2023-02-27T07:39:26.489Z,3.84
2023-02-27T07:40:01.339Z,3.87
2023-02-27T07:40:36.114Z,3.90
2023-02-27T07:41:12.100Z,3.91
2023-02-27T07:41:50.767Z,3.93
2023-02-27T07:42:25.402Z,3.96
2023-02-27T07:43:02.647Z,4.01
2023-02-27T07:43:36.362Z,4.04
2023-02-27T07:44:11.369Z,4.08
2023-02-27T07:44:43.569Z,4.11
2023-02-27T07:45:18.490Z,4.13
2023-02-27T07:45:53.330Z,4.17
2023-02-27T07:46:28.365Z,4.19
2023-02-27T07:47:00.696Z,4.18
2023-02-27T07:47:35.517Z,4.19
2023-02-27T07:48:07.613Z,4.20
2023-02-27T07:48:40.506Z,4.21
2023-02-27T07:49:15.663Z,4.21
2023-02-27T07:49:50.717Z,4.22
2023-02-27T07:50:22.868Z,4.21
2023-02-27T07:50:57.617Z,4.19
2023-02-27T07:51:29.858Z,4.18
2023-02-27T07:52:04.712Z,4.18
2023-02-27T07:52:38.564Z,4.19
2023-02-27T07:53:13.585Z,4.20
2023-02-27T07:53:45.661Z,4.20
2023-02-27T07:54:20.146Z,4.22
2023-02-27T07:54:55.083Z,4.22
2023-02-27T07:55:27.241Z,4.22
2023-02-27T07:56:02.215Z,4.24
2023-02-27T07:56:35.797Z,4.24
2023-02-27T07:57:07.902Z,4.25
2023-02-27T07:57:42.617Z,4.24
2023-02-27T07:58:17.460Z,4.26
2023-02-27T07:58:49.948Z,4.25
2023-02-27T07:59:24.603Z,4.22
2023-02-27T07:59:56.773Z,4.22
2023-02-27T08:00:29.714Z,4.21
2023-02-27T08:01:04.557Z,4.20
2023-02-27T08:01:36.750Z,4.20
2023-02-27T08:02:15.673Z,4.20
2023-02-27T08:02:47.867Z,4.18
2023-02-27T08:03:22.628Z,4.16
2023-02-27T08:03:56.555Z,4.11
2023-02-27T08:04:31.364Z,4.08
2023-02-27T08:05:03.790Z,4.07
2023-02-27T08:05:38.655Z,4.07
2023-02-27T08:06:11.353Z,4.06
2023-02-27T08:06:46.060Z,4.03
2023-02-27T08:07:18.358Z,4.02
2023-02-27T08:07:53.000Z,4.03
2023-02-27T08:08:25.183Z,4.01
2023-02-27T08:08:57.446Z,4.01
2023-02-27T08:09:32.513Z,4.02
2023-02-27T08:10:05.532Z,4.03
2023-02-27T08:10:40.228Z,4.03
2023-02-27T08:11:12.499Z,4.04
2023-02-27T08:11:45.544Z,4.06
2023-02-27T08:12:20.828Z,4.06
2023-02-27T08:12:55.968Z,4.10